createdAt,value
2023-01-17T00:01:16.485Z,0.42
2023-01-17T00:04:02.086Z,0.39
2023-01-17T00:06:47.475Z,0.40
2023-01-17T00:09:33.572Z,0.47
2023-01-17T00:12:02.359Z,0.49
2023-01-17T00:14:29.329Z,0.45
2023-01-17T00:16:56.273Z,0.42
2023-01-17T00:19:41.584Z,0.44
2023-01-17T00:22:41.315Z,0.43
2023-01-17T00:25:29.560Z,0.41
2023-01-17T00:27:56.768Z,0.26
2023-01-17T00:30:23.801Z,0.24
2023-01-17T00:32:50.681Z,0.18
2023-01-17T00:35:18.361Z,0.19
2023-01-17T00:37:45.082Z,0.22
2023-01-17T00:40:12.129Z,0.19
2023-01-17T00:42:39.084Z,0.23
2023-01-17T00:45:25.117Z,0.08
2023-01-17T00:48:10.287Z,0.04
2023-01-17T00:50:56.536Z,0.06
2023-01-17T00:53:41.979Z,0.06
2023-01-17T00:56:27.594Z,0.08
2023-01-17T00:59:13.009Z,0.10
2023-01-17T01:01:58.524Z,0.12
2023-01-17T01:04:44.121Z,0.12
2023-01-17T01:07:29.727Z,0.13
2023-01-17T01:10:15.327Z,0.14
2023-01-17T01:13:00.746Z,0.13
2023-01-17T01:15:45.985Z,0.15
2023-01-17T01:18:31.428Z,0.06
2023-01-17T01:21:20.790Z,0.12
2023-01-17T01:24:06.149Z,0.12
2023-01-17T01:26:51.502Z,0.11
2023-01-17T01:29:36.588Z,0.14
2023-01-17T01:32:22.039Z,0.12
2023-01-17T01:34:48.644Z,0.19
2023-01-17T01:37:15.356Z,0.26
2023-01-17T01:39:41.955Z,0.41
2023-01-17T01:42:15.756Z,0.57
2023-01-17T01:44:46.979Z,0.41
2023-01-17T01:47:19.343Z,0.37
2023-01-17T01:49:46.106Z,0.31
2023-01-17T01:52:13.686Z,0.31
2023-01-17T01:54:43.083Z,0.27
2023-01-17T01:57:12.300Z,0.23
2023-01-17T01:59:43.027Z,0.12
2023-01-17T02:02:10.291Z,0.21
2023-01-17T02:04:37.706Z,0.16
2023-01-17T02:07:08.335Z,0.16
2023-01-17T02:09:34.939Z,0.18
2023-01-17T02:12:02.355Z,0.16
2023-01-17T02:14:29.201Z,0.20
2023-01-17T02:16:55.805Z,0.18
2023-01-17T02:19:31.471Z,0.17
2023-01-17T02:22:27.537Z,0.15
2023-01-17T02:24:57.011Z,0.08
2023-01-17T02:27:46.592Z,0.10
2023-01-17T02:30:22.128Z,0.09
2023-01-17T02:32:56.430Z,0.25
2023-01-17T02:35:41.462Z,0.14
2023-01-17T02:38:08.368Z,0.16
2023-01-17T02:40:40.864Z,0.15
2023-01-17T02:43:10.840Z,0.22
2023-01-17T02:45:37.579Z,0.23
2023-01-17T02:48:08.162Z,0.30
2023-01-17T02:50:57.501Z,0.33
2023-01-17T02:53:34.879Z,0.28
2023-01-17T02:56:07.602Z,0.26
2023-01-17T02:58:41.933Z,0.30
2023-01-17T03:01:19.756Z,0.30
2023-01-17T03:03:49.149Z,0.31
2023-01-17T03:06:19.116Z,0.32
2023-01-17T03:08:47.271Z,0.30
2023-01-17T03:11:14.920Z,0.23
2023-01-17T03:13:42.360Z,0.17
2023-01-17T03:16:12.934Z,0.12
2023-01-17T03:18:39.667Z,0.09
2023-01-17T03:21:06.289Z,0.11
2023-01-17T03:23:32.904Z,0.11
2023-01-17T03:25:59.491Z,0.18
2023-01-17T03:28:26.229Z,0.12
2023-01-17T03:30:52.742Z,0.09
2023-01-17T03:33:19.551Z,-0.01
2023-01-17T03:35:46.489Z,-0.02
2023-01-17T03:38:13.155Z,-0.04
2023-01-17T03:40:39.869Z,-0.04
2023-01-17T03:43:06.433Z,-0.07
2023-01-17T03:45:33.193Z,-0.06
2023-01-17T03:48:00.181Z,-0.02
2023-01-17T03:50:26.868Z,-0.16
2023-01-17T03:52:53.507Z,-0.23
2023-01-17T03:55:20.210Z,-0.27
2023-01-17T03:57:46.762Z,-0.29
2023-01-17T04:00:13.584Z,-0.34
2023-01-17T04:02:40.312Z,-0.38
2023-01-17T04:05:07.266Z,-0.49
2023-01-17T04:07:34.080Z,-0.54
2023-01-17T04:10:00.668Z,-0.58
2023-01-17T04:12:27.252Z,-0.58
2023-01-17T04:14:53.817Z,-0.57
2023-01-17T04:17:20.806Z,-0.57
2023-01-17T04:19:47.496Z,-0.62
2023-01-17T04:22:14.314Z,-0.65
2023-01-17T04:24:40.949Z,-0.71
2023-01-17T04:27:07.629Z,-0.73
2023-01-17T04:29:34.199Z,-0.77
2023-01-17T04:32:01.001Z,-0.81
2023-01-17T04:34:27.641Z,-0.82
2023-01-17T04:36:54.223Z,-0.87
2023-01-17T04:39:20.888Z,-0.81
2023-01-17T04:41:47.545Z,-0.76
2023-01-17T04:44:14.367Z,-0.68
2023-01-17T04:46:41.452Z,-0.69
2023-01-17T04:49:08.297Z,-0.71
2023-01-17T04:51:35.277Z,-0.85
2023-01-17T04:54:01.996Z,-0.95
2023-01-17T04:56:28.595Z,-0.97
2023-01-17T04:58:57.075Z,-1.01
2023-01-17T05:01:24.073Z,-1.02
2023-01-17T05:03:50.958Z,-1.06
2023-01-17T05:06:17.825Z,-0.99
2023-01-17T05:08:44.813Z,-0.89
2023-01-17T05:11:11.601Z,-0.85
2023-01-17T05:13:38.465Z,-0.72
2023-01-17T05:16:05.392Z,-0.71
2023-01-17T05:18:32.140Z,-0.68
2023-01-17T05:21:02.708Z,-0.54
2023-01-17T05:23:29.630Z,-0.41
2023-01-17T05:25:56.465Z,-0.38
2023-01-17T05:28:23.421Z,-0.23
2023-01-17T05:30:50.506Z,-0.27
2023-01-17T05:33:17.512Z,-0.42
2023-01-17T05:35:44.443Z,-0.52
2023-01-17T05:38:11.659Z,-0.61
2023-01-17T05:40:38.543Z,-0.65
2023-01-17T05:43:05.356Z,-0.80
2023-01-17T05:45:33.540Z,-0.75
2023-01-17T05:48:01.170Z,-0.69
2023-01-17T05:50:29.888Z,-0.72
2023-01-17T05:52:58.623Z,-0.66
2023-01-17T05:55:26.224Z,-0.57
2023-01-17T05:57:53.421Z,-0.55
2023-01-17T06:00:20.623Z,-0.49
2023-01-17T06:02:48.049Z,-0.46
2023-01-17T06:05:15.226Z,-0.39
2023-01-17T06:07:46.288Z,-0.41
2023-01-17T06:10:14.684Z,-0.37
2023-01-17T06:12:42.461Z,-0.32
2023-01-17T06:15:10.053Z,-0.30
2023-01-17T06:17:37.344Z,-0.30
2023-01-17T06:20:05.569Z,-0.29
2023-01-17T06:22:33.512Z,-0.31
2023-01-17T06:25:01.029Z,-0.32
2023-01-17T06:27:27.903Z,-0.29
2023-01-17T06:29:55.023Z,-0.31
2023-01-17T06:32:22.476Z,-0.33
2023-01-17T06:34:49.423Z,-0.40
2023-01-17T06:37:16.831Z,-0.48
2023-01-17T06:39:43.821Z,-0.52
2023-01-17T06:42:10.854Z,-0.56
2023-01-17T06:44:37.822Z,-0.55
2023-01-17T06:47:04.705Z,-0.62
2023-01-17T06:49:31.680Z,-0.74
2023-01-17T06:51:58.941Z,-0.69
2023-01-17T06:54:26.187Z,-0.64
2023-01-17T06:56:53.182Z,-0.54
2023-01-17T06:59:21.023Z,-0.52
2023-01-17T07:01:48.184Z,-0.49
2023-01-17T07:04:15.500Z,-0.46
2023-01-17T07:06:43.022Z,-0.43
2023-01-17T07:09:09.903Z,-0.43
2023-01-17T07:11:38.245Z,-0.32
2023-01-17T07:14:05.832Z,-0.35
2023-01-17T07:16:35.548Z,-0.39
2023-01-17T07:19:02.862Z,-0.32
2023-01-17T07:21:29.835Z,-0.13
2023-01-17T07:23:56.669Z,-0.05
2023-01-17T07:26:23.585Z,0.00
2023-01-17T07:28:50.695Z,0.14
2023-01-17T07:31:17.880Z,0.16
2023-01-17T07:33:44.719Z,0.20
2023-01-17T07:36:11.597Z,0.31
2023-01-17T07:38:40.621Z,0.48
2023-01-17T07:41:10.924Z,0.62
2023-01-17T07:43:38.302Z,0.83
2023-01-17T07:46:07.825Z,1.04
2023-01-17T07:48:34.790Z,1.22
2023-01-17T07:51:01.908Z,1.30
2023-01-17T07:53:30.505Z,1.28
2023-01-17T07:56:00.972Z,1.48
2023-01-17T07:58:28.853Z,1.63
2023-01-17T08:01:01.608Z,1.60
2023-01-17T08:03:32.547Z,1.64
2023-01-17T08:05:59.582Z,1.71
2023-01-17T08:08:27.022Z,2.14
2023-01-17T08:10:54.060Z,2.58
2023-01-17T08:13:21.825Z,2.55
2023-01-17T08:15:49.904Z,2.34
2023-01-17T08:18:17.742Z,2.31
2023-01-17T08:20:44.859Z,2.21
2023-01-17T08:23:12.552Z,2.06
2023-01-17T08:25:40.152Z,2.03
2023-01-17T08:28:07.161Z,1.93
2023-01-17T08:30:34.969Z,1.84
2023-01-17T08:33:02.310Z,1.80
2023-01-17T08:35:29.661Z,1.78
2023-01-17T08:37:57.981Z,1.75
2023-01-17T08:40:25.121Z,1.71
2023-01-17T08:42:55.365Z,1.62
2023-01-17T08:45:22.462Z,1.49
2023-01-17T08:47:49.743Z,1.48
2023-01-17T08:50:20.778Z,1.48
2023-01-17T08:52:51.135Z,1.52
2023-01-17T08:55:18.223Z,1.56
2023-01-17T08:57:45.102Z,1.63
2023-01-17T09:00:12.596Z,1.62
2023-01-17T09:02:39.438Z,1.64
2023-01-17T09:05:06.758Z,1.69
2023-01-17T09:07:34.145Z,1.73
2023-01-17T09:10:01.157Z,1.59
2023-01-17T09:12:31.892Z,1.83
2023-01-17T09:14:59.022Z,2.11
2023-01-17T09:17:25.892Z,2.37
2023-01-17T09:19:52.958Z,2.32
2023-01-17T09:22:19.902Z,2.37
2023-01-17T09:24:46.873Z,2.23
2023-01-17T09:27:13.910Z,2.26
2023-01-17T09:29:41.170Z,2.28
2023-01-17T09:32:08.063Z,2.33
2023-01-17T09:34:34.950Z,2.48
2023-01-17T09:37:02.178Z,2.41
2023-01-17T09:39:29.745Z,2.47
2023-01-17T09:42:18.391Z,2.80
2023-01-17T09:44:52.177Z,2.94
2023-01-17T09:47:19.392Z,3.03
2023-01-17T09:49:47.216Z,3.15
2023-01-17T09:52:24.865Z,3.10
2023-01-17T09:54:52.069Z,3.15
2023-01-17T09:57:25.112Z,3.14
2023-01-17T10:00:05.349Z,3.21
2023-01-17T10:02:37.084Z,3.27
2023-01-17T10:05:20.227Z,3.25
2023-01-17T10:08:05.194Z,3.34
2023-01-17T10:10:44.797Z,3.45
2023-01-17T10:13:28.719Z,3.41
2023-01-17T10:16:02.542Z,3.48
2023-01-17T10:18:43.940Z,3.48
2023-01-17T10:21:15.904Z,3.43
2023-01-17T10:23:45.902Z,3.52
2023-01-17T10:26:23.842Z,3.57
2023-01-17T10:28:52.137Z,3.98
2023-01-17T10:31:26.160Z,3.89
2023-01-17T10:33:55.273Z,3.84
2023-01-17T10:36:25.501Z,3.75
2023-01-17T10:38:54.221Z,3.85
2023-01-17T10:41:30.708Z,4.02
2023-01-17T10:43:58.699Z,4.15
2023-01-17T10:46:29.268Z,4.06
2023-01-17T10:48:58.278Z,3.94
2023-01-17T10:51:44.148Z,3.83
2023-01-17T10:54:18.225Z,3.89
2023-01-17T10:56:45.268Z,3.74
2023-01-17T10:59:27.887Z,4.00
2023-01-17T11:01:55.231Z,3.88
2023-01-17T11:04:27.189Z,4.20
2023-01-17T11:07:14.462Z,3.96
2023-01-17T11:09:43.261Z,3.85
2023-01-17T11:12:25.831Z,3.72
2023-01-17T11:14:58.915Z,3.73
2023-01-17T11:17:27.927Z,3.67
2023-01-17T11:20:05.982Z,3.62
2023-01-17T11:22:33.022Z,3.24
2023-01-17T11:25:00.486Z,3.12
2023-01-17T11:27:29.273Z,2.95
2023-01-17T11:30:04.244Z,2.97
2023-01-17T11:32:34.870Z,2.96
2023-01-17T11:35:06.142Z,3.02
2023-01-17T11:37:34.462Z,2.98
2023-01-17T11:40:08.193Z,2.89
2023-01-17T11:42:36.707Z,3.08
2023-01-17T11:45:22.540Z,3.03
2023-01-17T11:47:50.026Z,3.15
2023-01-17T11:50:24.861Z,3.13
2023-01-17T11:52:51.745Z,2.90
2023-01-17T11:55:23.342Z,3.02
2023-01-17T11:57:51.181Z,2.96
2023-01-17T12:00:50.653Z,2.91
2023-01-17T12:03:27.876Z,2.87
2023-01-17T12:05:58.301Z,2.88
2023-01-17T12:08:43.504Z,2.89
2023-01-17T12:11:14.018Z,2.80
2023-01-17T12:14:10.307Z,2.76
2023-01-17T12:16:47.580Z,2.54
2023-01-17T12:19:20.781Z,2.64
2023-01-17T12:22:06.066Z,2.77
2023-01-17T12:24:35.983Z,2.80
2023-01-17T12:27:03.136Z,2.65
2023-01-17T12:29:39.747Z,2.48
2023-01-17T12:32:06.900Z,2.54
2023-01-17T12:34:39.501Z,2.66
2023-01-17T12:37:12.865Z,2.79
2023-01-17T12:39:42.888Z,2.56
2023-01-17T12:42:15.102Z,2.72
2023-01-17T12:44:48.196Z,2.68
2023-01-17T12:47:16.545Z,2.72
2023-01-17T12:50:02.267Z,2.68
2023-01-17T12:52:49.105Z,2.60
2023-01-17T12:55:18.763Z,2.58
2023-01-17T12:57:50.863Z,2.63
2023-01-17T13:00:23.529Z,2.68
2023-01-17T13:02:55.748Z,2.70
2023-01-17T13:05:26.328Z,2.70
2023-01-17T13:08:05.256Z,2.71
2023-01-17T13:10:32.275Z,2.65
2023-01-17T13:13:03.822Z,2.56
2023-01-17T13:15:35.820Z,2.62
2023-01-17T13:18:23.561Z,2.69
2023-01-17T13:21:06.183Z,2.76
2023-01-17T13:23:51.748Z,2.72
2023-01-17T13:26:42.143Z,2.78
2023-01-17T13:29:20.860Z,2.85
2023-01-17T13:31:58.191Z,2.85
2023-01-17T13:34:26.156Z,2.83
2023-01-17T13:37:13.189Z,3.02
2023-01-17T13:40:15.585Z,2.89
2023-01-17T13:42:45.505Z,2.92
2023-01-17T13:45:20.069Z,2.86
2023-01-17T13:47:47.031Z,2.80
2023-01-17T13:50:32.442Z,2.78
2023-01-17T13:53:00.955Z,2.72
2023-01-17T13:55:47.260Z,2.65
2023-01-17T13:58:28.183Z,2.53
2023-01-17T14:00:56.247Z,2.58
2023-01-17T14:03:41.820Z,2.55
2023-01-17T14:06:27.790Z,2.46
2023-01-17T14:09:01.103Z,2.46
2023-01-17T14:11:28.293Z,2.49
2023-01-17T14:13:56.303Z,2.54
2023-01-17T14:16:23.369Z,2.52
2023-01-17T14:18:50.468Z,2.53
2023-01-17T14:21:28.142Z,2.56
2023-01-17T14:23:55.182Z,2.53
2023-01-17T14:26:41.501Z,2.56
2023-01-17T14:29:27.024Z,2.52
2023-01-17T14:32:04.141Z,2.48
2023-01-17T14:34:32.783Z,2.44
2023-01-17T14:37:14.615Z,2.44
2023-01-17T14:39:46.470Z,2.44
2023-01-17T14:42:17.512Z,2.39
2023-01-17T14:44:48.781Z,2.40
2023-01-17T14:47:16.141Z,2.41
2023-01-17T14:49:43.504Z,2.42
2023-01-17T14:52:17.594Z,2.39
2023-01-17T14:54:48.301Z,2.42
2023-01-17T14:57:23.214Z,2.44
2023-01-17T14:59:51.023Z,2.36
2023-01-17T15:02:18.984Z,2.34
2023-01-17T15:04:53.903Z,2.30
2023-01-17T15:07:21.023Z,2.27
2023-01-17T15:09:49.004Z,2.30
2023-01-17T15:12:16.630Z,2.29
2023-01-17T15:14:46.069Z,2.27
2023-01-17T15:17:18.948Z,2.26
2023-01-17T15:19:49.039Z,2.12
2023-01-17T15:22:17.586Z,2.05
2023-01-17T15:24:46.301Z,2.01
2023-01-17T15:27:17.030Z,2.02
2023-01-17T15:29:47.502Z,2.00
2023-01-17T15:32:22.789Z,2.05
2023-01-17T15:34:51.424Z,2.02
2023-01-17T15:37:25.512Z,2.00
2023-01-17T15:39:52.462Z,1.96
2023-01-17T15:42:25.183Z,1.95
2023-01-17T15:44:54.629Z,1.89
2023-01-17T15:47:27.826Z,1.94
2023-01-17T15:49:55.826Z,1.94
2023-01-17T15:52:22.701Z,1.93
2023-01-17T15:55:13.266Z,1.87
2023-01-17T15:57:40.624Z,1.83
2023-01-17T16:00:07.984Z,1.85
2023-01-17T16:02:36.003Z,1.81
2023-01-17T16:05:23.353Z,1.75
2023-01-17T16:07:55.902Z,1.73
2023-01-17T16:10:25.573Z,1.78
2023-01-17T16:12:53.961Z,1.78
2023-01-17T16:15:24.033Z,1.83
2023-01-17T16:17:56.863Z,1.78
2023-01-17T16:20:29.585Z,1.73
2023-01-17T16:22:56.232Z,1.65
2023-01-17T16:25:24.300Z,1.65
2023-01-17T16:27:51.494Z,1.60
2023-01-17T16:30:19.969Z,1.60
2023-01-17T16:32:48.810Z,1.62
2023-01-17T16:35:25.869Z,1.57
2023-01-17T16:37:54.382Z,1.55
2023-01-17T16:40:22.196Z,1.53
2023-01-17T16:42:48.984Z,1.49
2023-01-17T16:45:16.028Z,1.65
2023-01-17T16:47:43.784Z,1.55
2023-01-17T16:50:11.457Z,1.62
2023-01-17T16:52:38.343Z,1.62
2023-01-17T16:55:06.785Z,1.60
2023-01-17T16:57:33.550Z,1.55
2023-01-17T17:00:00.179Z,1.53
2023-01-17T17:02:26.707Z,1.47
2023-01-17T17:04:53.359Z,1.41
2023-01-17T17:07:20.083Z,1.43
2023-01-17T17:09:46.610Z,1.32
2023-01-17T17:12:13.525Z,1.34
2023-01-17T17:14:41.055Z,1.32
2023-01-17T17:17:08.162Z,1.27
2023-01-17T17:19:34.806Z,1.26
2023-01-17T17:22:02.050Z,1.27
2023-01-17T17:24:29.061Z,1.22
2023-01-17T17:26:56.181Z,1.26
2023-01-17T17:29:22.815Z,1.28
2023-01-17T17:31:49.764Z,1.29
2023-01-17T17:34:16.308Z,1.25
2023-01-17T17:36:43.207Z,1.27
2023-01-17T17:39:14.788Z,1.25
2023-01-17T17:41:42.482Z,1.22
2023-01-17T17:44:09.998Z,1.18
2023-01-17T17:46:37.258Z,1.15
2023-01-17T17:49:04.288Z,1.25
2023-01-17T17:51:32.178Z,1.19
2023-01-17T17:54:00.972Z,1.17
2023-01-17T17:56:28.753Z,1.22
2023-01-17T17:58:55.463Z,1.24
2023-01-17T18:01:25.208Z,1.04
2023-01-17T18:03:52.307Z,1.08
2023-01-17T18:06:19.657Z,1.05
2023-01-17T18:08:46.287Z,0.89
2023-01-17T18:11:19.077Z,0.85
2023-01-17T18:13:52.804Z,0.76
2023-01-17T18:16:29.780Z,0.76
2023-01-17T18:18:58.292Z,0.81
2023-01-17T18:21:29.473Z,0.81
2023-01-17T18:23:58.734Z,0.84
2023-01-17T18:26:28.219Z,0.77
2023-01-17T18:28:55.455Z,0.60
2023-01-17T18:31:24.271Z,0.53
2023-01-17T18:33:55.375Z,0.45
2023-01-17T18:36:23.533Z,0.52
2023-01-17T18:38:50.894Z,0.47
2023-01-17T18:41:27.782Z,0.45
2023-01-17T18:43:57.694Z,0.43
2023-01-17T18:46:26.145Z,0.43
2023-01-17T18:48:55.230Z,0.43
2023-01-17T18:51:21.911Z,0.46
2023-01-17T18:53:49.115Z,0.54
2023-01-17T18:56:17.855Z,0.55
2023-01-17T18:58:45.226Z,0.54
2023-01-17T19:01:16.776Z,0.54
2023-01-17T19:03:44.710Z,0.56
2023-01-17T19:06:14.631Z,0.51
2023-01-17T19:08:41.652Z,0.52
2023-01-17T19:11:08.858Z,0.55
2023-01-17T19:13:36.585Z,0.43
2023-01-17T19:16:05.061Z,0.42
2023-01-17T19:18:31.994Z,0.47
2023-01-17T19:21:08.600Z,0.53
2023-01-17T19:23:36.202Z,0.47
2023-01-17T19:26:03.624Z,0.44
2023-01-17T19:28:30.593Z,0.47
2023-01-17T19:31:07.909Z,0.62
2023-01-17T19:33:35.855Z,0.66
2023-01-17T19:36:03.814Z,0.64
2023-01-17T19:38:32.003Z,0.63
2023-01-17T19:41:06.082Z,0.66
2023-01-17T19:43:32.603Z,0.68
2023-01-17T19:45:59.650Z,0.62
2023-01-17T19:48:26.944Z,0.67
2023-01-17T19:50:54.656Z,0.67
2023-01-17T19:53:24.300Z,0.70
2023-01-17T19:55:50.939Z,0.70
2023-01-17T19:58:17.472Z,0.67
2023-01-17T20:00:46.621Z,0.61
2023-01-17T20:03:13.431Z,0.66
2023-01-17T20:05:39.970Z,0.61
2023-01-17T20:08:06.815Z,0.58
2023-01-17T20:10:33.509Z,0.57
2023-01-17T20:13:00.974Z,0.54
2023-01-17T20:15:27.979Z,0.58
2023-01-17T20:17:55.846Z,0.57
2023-01-17T20:20:22.813Z,0.57
2023-01-17T20:22:50.031Z,0.63
2023-01-17T20:25:16.813Z,0.60
2023-01-17T20:27:44.448Z,0.63
2023-01-17T20:30:20.061Z,0.66
2023-01-17T20:32:47.229Z,0.72
2023-01-17T20:35:13.665Z,0.74
2023-01-17T20:37:40.556Z,0.76
2023-01-17T20:40:07.341Z,0.80
2023-01-17T20:42:36.044Z,0.78
2023-01-17T20:45:04.395Z,0.74
2023-01-17T20:47:31.124Z,0.73
2023-01-17T20:49:57.744Z,0.78
2023-01-17T20:52:24.191Z,0.84
2023-01-17T20:54:51.855Z,0.83
2023-01-17T20:57:18.560Z,0.83
2023-01-17T20:59:46.066Z,0.90
2023-01-17T21:02:12.730Z,0.89
2023-01-17T21:04:39.470Z,0.90
2023-01-17T21:07:06.305Z,0.94
2023-01-17T21:09:33.378Z,0.95
2023-01-17T21:12:01.803Z,0.96
2023-01-17T21:14:28.983Z,0.98
2023-01-17T21:16:56.144Z,0.96
2023-01-17T21:19:24.098Z,0.96
2023-01-17T21:21:51.540Z,0.92
2023-01-17T21:24:19.607Z,0.95
2023-01-17T21:26:46.852Z,0.93
2023-01-17T21:29:15.811Z,0.92
2023-01-17T21:31:42.705Z,0.96
2023-01-17T21:34:10.802Z,1.05
2023-01-17T21:36:38.588Z,1.00
2023-01-17T21:39:07.308Z,0.95
2023-01-17T21:41:35.129Z,0.95
2023-01-17T21:44:03.071Z,0.95
2023-01-17T21:46:30.458Z,0.93
2023-01-17T21:48:57.676Z,0.99
2023-01-17T21:51:24.576Z,1.05
2023-01-17T21:53:51.058Z,1.07
2023-01-17T21:56:35.958Z,0.99
2023-01-17T21:59:02.490Z,1.02
2023-01-17T22:01:32.082Z,1.00
2023-01-17T22:04:00.103Z,1.03
2023-01-17T22:06:28.533Z,0.98
2023-01-17T22:08:55.242Z,1.03
2023-01-17T22:11:23.728Z,1.08
2023-01-17T22:13:50.322Z,1.07
2023-01-17T22:16:18.852Z,1.05
2023-01-17T22:18:45.937Z,1.01
2023-01-17T22:21:16.808Z,1.03
2023-01-17T22:24:01.711Z,1.01
2023-01-17T22:26:29.883Z,0.98
2023-01-17T22:28:56.689Z,0.97
2023-01-17T22:31:24.733Z,0.98
2023-01-17T22:33:55.850Z,0.99
2023-01-17T22:36:22.941Z,1.03
2023-01-17T22:38:49.659Z,1.03
2023-01-17T22:41:17.873Z,1.00
2023-01-17T22:43:46.732Z,1.02
2023-01-17T22:46:14.713Z,0.99
2023-01-17T22:48:41.563Z,1.01
2023-01-17T22:51:09.315Z,0.98
2023-01-17T22:53:39.579Z,1.04
2023-01-17T22:56:07.217Z,1.01
2023-01-17T22:58:34.142Z,0.98
2023-01-17T23:01:07.274Z,1.03
2023-01-17T23:03:35.147Z,1.11
2023-01-17T23:06:13.327Z,1.09
2023-01-17T23:08:41.803Z,1.04
2023-01-17T23:11:39.863Z,1.03
2023-01-17T23:14:08.125Z,1.01
2023-01-17T23:16:53.559Z,1.02
2023-01-17T23:19:23.648Z,1.03
2023-01-17T23:22:10.527Z,1.03
2023-01-17T23:24:43.437Z,1.02
2023-01-17T23:27:30.561Z,0.97
2023-01-17T23:29:57.728Z,0.97
2023-01-17T23:32:25.158Z,0.96
2023-01-17T23:34:52.201Z,0.97
2023-01-17T23:37:19.649Z,0.95
2023-01-17T23:39:46.629Z,0.99
2023-01-17T23:42:32.019Z,0.93
2023-01-17T23:44:59.078Z,0.94
2023-01-17T23:47:26.137Z,0.94
2023-01-17T23:49:53.163Z,0.97
2023-01-17T23:52:20.368Z,0.96
2023-01-17T23:54:48.768Z,0.95
2023-01-17T23:57:15.351Z,0.95
2023-01-17T23:59:41.860Z,0.95
